sensor_id;sensor_type;location;lat;lon;timestamp;P1;durP1;ratioP1;P2;durP2;ratioP2
77678;SDS011;66835;49.478;10.724;2024-03-02T00:01:24;38.60;;;17.88;;
77678;SDS011;66835;49.478;10.724;2024-03-02T00:03:49;35.38;;;18.73;;
77678;SDS011;66835;49.478;10.724;2024-03-02T00:06:14;38.10;;;19.10;;
77678;SDS011;66835;49.478;10.724;2024-03-02T00:08:40;39.75;;;20.17;;
77678;SDS011;66835;49.478;10.724;2024-03-02T00:11:06;38.28;;;19.38;;
77678;SDS011;66835;49.478;10.724;2024-03-02T00:13:32;38.78;;;20.75;;
77678;SDS011;66835;49.478;10.724;2024-03-02T00:15:58;40.72;;;20.67;;
77678;SDS011;66835;49.478;10.724;2024-03-02T00:18:26;38.97;;;20.75;;
77678;SDS011;66835;49.478;10.724;2024-03-02T00:20:53;41.28;;;19.90;;
77678;SDS011;66835;49.478;10.724;2024-03-02T00:23:20;40.13;;;20.08;;
77678;SDS011;66835;49.478;10.724;2024-03-02T00:25:47;45.05;;;21.85;;
77678;SDS011;66835;49.478;10.724;2024-03-02T00:28:14;40.45;;;21.08;;
77678;SDS011;66835;49.478;10.724;2024-03-02T00:30:55;42.90;;;23.60;;
77678;SDS011;66835;49.478;10.724;2024-03-02T00:33:22;39.92;;;21.35;;
77678;SDS011;66835;49.478;10.724;2024-03-02T00:35:49;45.75;;;22.50;;
77678;SDS011;66835;49.478;10.724;2024-03-02T00:38:15;35.17;;;19.10;;
77678;SDS011;66835;49.478;10.724;2024-03-02T00:40:40;38.20;;;20.95;;
77678;SDS011;66835;49.478;10.724;2024-03-02T00:43:06;41.35;;;20.15;;
77678;SDS011;66835;49.478;10.724;2024-03-02T00:45:39;42.15;;;20.75;;
77678;SDS011;66835;49.478;10.724;2024-03-02T00:48:05;37.47;;;20.40;;
77678;SDS011;66835;49.478;10.724;2024-03-02T00:50:31;36.97;;;19.85;;
77678;SDS011;66835;49.478;10.724;2024-03-02T00:52:59;40.78;;;20.35;;
77678;SDS011;66835;49.478;10.724;2024-03-02T00:55:25;35.40;;;19.30;;
77678;SDS011;66835;49.478;10.724;2024-03-02T00:57:50;38.45;;;20.63;;
77678;SDS011;66835;49.478;10.724;2024-03-02T01:00:16;36.20;;;19.27;;
77678;SDS011;66835;49.478;10.724;2024-03-02T01:02:43;38.92;;;20.23;;
77678;SDS011;66835;49.478;10.724;2024-03-02T01:05:10;37.83;;;20.25;;
77678;SDS011;66835;49.478;10.724;2024-03-02T01:07:37;36.85;;;19.15;;
77678;SDS011;66835;49.478;10.724;2024-03-02T01:10:04;33.38;;;17.15;;
77678;SDS011;66835;49.478;10.724;2024-03-02T01:12:30;40.47;;;19.75;;
77678;SDS011;66835;49.478;10.724;2024-03-02T01:14:55;37.75;;;18.35;;
77678;SDS011;66835;49.478;10.724;2024-03-02T01:17:21;42.00;;;19.48;;
77678;SDS011;66835;49.478;10.724;2024-03-02T01:19:47;38.35;;;18.25;;
77678;SDS011;66835;49.478;10.724;2024-03-02T01:22:12;38.17;;;19.38;;
77678;SDS011;66835;49.478;10.724;2024-03-02T01:24:38;32.03;;;16.33;;
77678;SDS011;66835;49.478;10.724;2024-03-02T01:27:05;31.88;;;17.13;;
77678;SDS011;66835;49.478;10.724;2024-03-02T01:29:30;31.45;;;15.80;;
77678;SDS011;66835;49.478;10.724;2024-03-02T01:31:55;33.85;;;16.40;;
77678;SDS011;66835;49.478;10.724;2024-03-02T01:34:21;34.47;;;15.27;;
77678;SDS011;66835;49.478;10.724;2024-03-02T01:36:46;29.42;;;14.27;;
77678;SDS011;66835;49.478;10.724;2024-03-02T01:39:11;31.17;;;15.27;;
77678;SDS011;66835;49.478;10.724;2024-03-02T01:41:37;30.75;;;15.27;;
77678;SDS011;66835;49.478;10.724;2024-03-02T01:44:04;27.52;;;14.45;;
77678;SDS011;66835;49.478;10.724;2024-03-02T01:46:29;27.15;;;14.35;;
77678;SDS011;66835;49.478;10.724;2024-03-02T01:48:54;35.97;;;17.85;;
77678;SDS011;66835;49.478;10.724;2024-03-02T01:51:20;41.35;;;20.27;;
77678;SDS011;66835;49.478;10.724;2024-03-02T01:53:46;39.80;;;20.45;;
77678;SDS011;66835;49.478;10.724;2024-03-02T01:56:11;40.97;;;20.13;;
77678;SDS011;66835;49.478;10.724;2024-03-02T01:58:37;39.08;;;18.83;;
77678;SDS011;66835;49.478;10.724;2024-03-02T02:01:04;38.80;;;18.40;;
77678;SDS011;66835;49.478;10.724;2024-03-02T02:03:29;43.17;;;21.00;;
77678;SDS011;66835;49.478;10.724;2024-03-02T02:05:55;34.63;;;17.85;;
77678;SDS011;66835;49.478;10.724;2024-03-02T02:08:21;37.92;;;18.92;;
77678;SDS011;66835;49.478;10.724;2024-03-02T02:10:46;34.20;;;17.48;;
77678;SDS011;66835;49.478;10.724;2024-03-02T02:13:11;33.67;;;18.57;;
77678;SDS011;66835;49.478;10.724;2024-03-02T02:15:37;32.30;;;17.50;;
77678;SDS011;66835;49.478;10.724;2024-03-02T02:18:04;30.15;;;16.85;;
77678;SDS011;66835;49.478;10.724;2024-03-02T02:20:29;33.40;;;16.80;;
77678;SDS011;66835;49.478;10.724;2024-03-02T02:22:57;37.90;;;17.93;;
77678;SDS011;66835;49.478;10.724;2024-03-02T02:25:22;34.63;;;17.48;;
77678;SDS011;66835;49.478;10.724;2024-03-02T02:27:48;33.15;;;17.45;;
77678;SDS011;66835;49.478;10.724;2024-03-02T02:30:13;44.50;;;19.23;;
77678;SDS011;66835;49.478;10.724;2024-03-02T02:32:43;38.28;;;18.00;;
77678;SDS011;66835;49.478;10.724;2024-03-02T02:35:09;35.83;;;17.00;;
77678;SDS011;66835;49.478;10.724;2024-03-02T02:37:34;31.30;;;17.70;;
77678;SDS011;66835;49.478;10.724;2024-03-02T02:40:01;32.50;;;17.88;;
77678;SDS011;66835;49.478;10.724;2024-03-02T02:42:27;39.30;;;18.92;;
77678;SDS011;66835;49.478;10.724;2024-03-02T02:44:52;35.63;;;19.27;;
77678;SDS011;66835;49.478;10.724;2024-03-02T02:47:18;32.57;;;17.37;;
77678;SDS011;66835;49.478;10.724;2024-03-02T02:49:43;32.17;;;18.05;;
77678;SDS011;66835;49.478;10.724;2024-03-02T02:52:08;36.83;;;18.83;;
77678;SDS011;66835;49.478;10.724;2024-03-02T02:54:34;32.47;;;17.17;;
77678;SDS011;66835;49.478;10.724;2024-03-02T02:57:00;36.07;;;18.60;;
77678;SDS011;66835;49.478;10.724;2024-03-02T02:59:26;37.50;;;18.70;;
77678;SDS011;66835;49.478;10.724;2024-03-02T03:01:51;40.38;;;19.25;;
77678;SDS011;66835;49.478;10.724;2024-03-02T03:04:17;33.05;;;18.10;;
77678;SDS011;66835;49.478;10.724;2024-03-02T03:06:42;35.67;;;18.17;;
77678;SDS011;66835;49.478;10.724;2024-03-02T03:09:08;35.60;;;18.52;;
77678;SDS011;66835;49.478;10.724;2024-03-02T03:11:36;33.85;;;16.63;;
77678;SDS011;66835;49.478;10.724;2024-03-02T03:14:02;37.13;;;17.67;;
77678;SDS011;66835;49.478;10.724;2024-03-02T03:16:30;34.78;;;18.23;;
77678;SDS011;66835;49.478;10.724;2024-03-02T03:18:55;34.38;;;18.17;;
77678;SDS011;66835;49.478;10.724;2024-03-02T03:21:20;36.03;;;18.63;;
77678;SDS011;66835;49.478;10.724;2024-03-02T03:23:46;31.67;;;17.35;;
77678;SDS011;66835;49.478;10.724;2024-03-02T03:26:11;36.08;;;17.77;;
77678;SDS011;66835;49.478;10.724;2024-03-02T03:28:37;63.25;;;26.58;;
77678;SDS011;66835;49.478;10.724;2024-03-02T03:31:04;53.30;;;23.07;;
77678;SDS011;66835;49.478;10.724;2024-03-02T03:33:29;40.72;;;20.13;;
77678;SDS011;66835;49.478;10.724;2024-03-02T03:35:54;42.83;;;19.42;;
77678;SDS011;66835;49.478;10.724;2024-03-02T03:38:20;35.27;;;18.73;;
77678;SDS011;66835;49.478;10.724;2024-03-02T03:40:45;36.30;;;17.27;;
77678;SDS011;66835;49.478;10.724;2024-03-02T03:43:11;37.47;;;18.52;;
77678;SDS011;66835;49.478;10.724;2024-03-02T03:45:36;38.00;;;18.73;;
77678;SDS011;66835;49.478;10.724;2024-03-02T03:48:03;38.70;;;18.60;;
77678;SDS011;66835;49.478;10.724;2024-03-02T03:50:28;38.17;;;19.05;;
77678;SDS011;66835;49.478;10.724;2024-03-02T03:52:54;48.93;;;20.53;;
77678;SDS011;66835;49.478;10.724;2024-03-02T03:55:19;38.35;;;18.25;;
77678;SDS011;66835;49.478;10.724;2024-03-02T03:57:44;49.00;;;21.35;;
77678;SDS011;66835;49.478;10.724;2024-03-02T04:00:10;37.87;;;20.20;;
77678;SDS011;66835;49.478;10.724;2024-03-02T04:02:37;40.30;;;18.38;;
77678;SDS011;66835;49.478;10.724;2024-03-02T04:05:04;37.95;;;17.55;;
77678;SDS011;66835;49.478;10.724;2024-03-02T04:07:33;30.30;;;16.60;;
77678;SDS011;66835;49.478;10.724;2024-03-02T04:10:04;34.17;;;17.95;;
77678;SDS011;66835;49.478;10.724;2024-03-02T04:12:33;33.95;;;17.40;;
77678;SDS011;66835;49.478;10.724;2024-03-02T04:14:58;30.48;;;16.73;;
77678;SDS011;66835;49.478;10.724;2024-03-02T04:17:23;33.37;;;17.20;;
77678;SDS011;66835;49.478;10.724;2024-03-02T04:19:49;33.03;;;16.60;;
77678;SDS011;66835;49.478;10.724;2024-03-02T04:22:16;31.45;;;15.63;;
77678;SDS011;66835;49.478;10.724;2024-03-02T04:24:41;31.98;;;17.55;;
77678;SDS011;66835;49.478;10.724;2024-03-02T04:27:07;33.70;;;16.77;;
77678;SDS011;66835;49.478;10.724;2024-03-02T04:29:32;34.63;;;18.20;;
77678;SDS011;66835;49.478;10.724;2024-03-02T04:31:57;29.90;;;16.80;;
77678;SDS011;66835;49.478;10.724;2024-03-02T04:34:23;44.90;;;21.30;;
77678;SDS011;66835;49.478;10.724;2024-03-02T04:36:48;36.47;;;19.67;;
77678;SDS011;66835;49.478;10.724;2024-03-02T04:39:15;47.03;;;21.38;;
77678;SDS011;66835;49.478;10.724;2024-03-02T04:41:41;49.15;;;23.05;;
77678;SDS011;66835;49.478;10.724;2024-03-02T04:44:06;53.67;;;23.70;;
77678;SDS011;66835;49.478;10.724;2024-03-02T04:46:33;46.20;;;21.27;;
77678;SDS011;66835;49.478;10.724;2024-03-02T04:48:58;41.50;;;20.60;;
77678;SDS011;66835;49.478;10.724;2024-03-02T04:51:23;33.23;;;16.97;;
77678;SDS011;66835;49.478;10.724;2024-03-02T04:53:49;35.33;;;16.43;;
77678;SDS011;66835;49.478;10.724;2024-03-02T04:56:15;28.13;;;16.42;;
77678;SDS011;66835;49.478;10.724;2024-03-02T04:58:56;24.40;;;12.77;;
77678;SDS011;66835;49.478;10.724;2024-03-02T05:01:21;26.00;;;13.18;;
77678;SDS011;66835;49.478;10.724;2024-03-02T05:03:47;26.47;;;12.93;;
77678;SDS011;66835;49.478;10.724;2024-03-02T05:06:12;22.63;;;11.38;;
77678;SDS011;66835;49.478;10.724;2024-03-02T05:08:37;27.50;;;12.23;;
77678;SDS011;66835;49.478;10.724;2024-03-02T05:11:03;27.25;;;12.55;;
77678;SDS011;66835;49.478;10.724;2024-03-02T05:13:48;24.45;;;12.02;;
77678;SDS011;66835;49.478;10.724;2024-03-02T05:16:14;26.67;;;12.63;;
77678;SDS011;66835;49.478;10.724;2024-03-02T05:18:39;29.83;;;13.55;;
77678;SDS011;66835;49.478;10.724;2024-03-02T05:21:04;27.58;;;12.27;;
77678;SDS011;66835;49.478;10.724;2024-03-02T05:23:30;23.83;;;11.55;;
77678;SDS011;66835;49.478;10.724;2024-03-02T05:25:56;41.15;;;19.13;;
77678;SDS011;66835;49.478;10.724;2024-03-02T05:28:21;33.10;;;15.90;;
77678;SDS011;66835;49.478;10.724;2024-03-02T05:30:48;29.50;;;17.00;;
77678;SDS011;66835;49.478;10.724;2024-03-02T05:33:14;37.95;;;19.50;;
77678;SDS011;66835;49.478;10.724;2024-03-02T05:35:40;37.50;;;18.70;;
77678;SDS011;66835;49.478;10.724;2024-03-02T05:38:05;31.77;;;15.47;;
77678;SDS011;66835;49.478;10.724;2024-03-02T05:40:30;27.80;;;14.13;;
77678;SDS011;66835;49.478;10.724;2024-03-02T05:42:56;24.77;;;11.73;;
77678;SDS011;66835;49.478;10.724;2024-03-02T05:45:21;22.27;;;12.00;;
77678;SDS011;66835;49.478;10.724;2024-03-02T05:47:48;24.13;;;12.13;;
77678;SDS011;66835;49.478;10.724;2024-03-02T05:50:13;23.92;;;11.93;;
77678;SDS011;66835;49.478;10.724;2024-03-02T05:52:39;21.65;;;10.30;;
77678;SDS011;66835;49.478;10.724;2024-03-02T05:55:04;23.37;;;11.93;;
77678;SDS011;66835;49.478;10.724;2024-03-02T05:57:30;21.02;;;11.10;;
77678;SDS011;66835;49.478;10.724;2024-03-02T06:00:24;24.92;;;11.13;;
77678;SDS011;66835;49.478;10.724;2024-03-02T06:02:51;20.67;;;11.82;;
77678;SDS011;66835;49.478;10.724;2024-03-02T06:05:16;23.95;;;11.95;;
77678;SDS011;66835;49.478;10.724;2024-03-02T06:07:43;27.00;;;11.95;;
77678;SDS011;66835;49.478;10.724;2024-03-02T06:10:09;21.33;;;11.27;;
77678;SDS011;66835;49.478;10.724;2024-03-02T06:12:34;33.10;;;16.08;;
77678;SDS011;66835;49.478;10.724;2024-03-02T06:15:00;34.57;;;17.63;;
77678;SDS011;66835;49.478;10.724;2024-03-02T06:17:25;34.47;;;16.85;;
77678;SDS011;66835;49.478;10.724;2024-03-02T06:19:52;26.85;;;15.30;;
77678;SDS011;66835;49.478;10.724;2024-03-02T06:22:17;29.92;;;15.55;;
77678;SDS011;66835;49.478;10.724;2024-03-02T06:24:44;28.73;;;15.18;;
77678;SDS011;66835;49.478;10.724;2024-03-02T06:27:09;30.85;;;16.25;;
77678;SDS011;66835;49.478;10.724;2024-03-02T06:29:35;31.00;;;15.93;;
77678;SDS011;66835;49.478;10.724;2024-03-02T06:32:00;34.97;;;17.23;;
77678;SDS011;66835;49.478;10.724;2024-03-02T06:34:25;28.00;;;14.20;;
77678;SDS011;66835;49.478;10.724;2024-03-02T06:36:52;25.75;;;12.68;;
77678;SDS011;66835;49.478;10.724;2024-03-02T06:39:17;27.40;;;14.40;;
77678;SDS011;66835;49.478;10.724;2024-03-02T06:41:43;23.83;;;13.25;;
77678;SDS011;66835;49.478;10.724;2024-03-02T06:44:08;24.47;;;13.07;;
77678;SDS011;66835;49.478;10.724;2024-03-02T06:46:34;28.57;;;15.57;;
77678;SDS011;66835;49.478;10.724;2024-03-02T06:48:59;50.23;;;22.90;;
77678;SDS011;66835;49.478;10.724;2024-03-02T06:51:24;45.35;;;22.58;;
77678;SDS011;66835;49.478;10.724;2024-03-02T06:53:51;37.83;;;18.73;;
77678;SDS011;66835;49.478;10.724;2024-03-02T06:56:16;37.30;;;18.23;;
77678;SDS011;66835;49.478;10.724;2024-03-02T06:58:42;36.63;;;17.27;;
77678;SDS011;66835;49.478;10.724;2024-03-02T07:01:08;32.15;;;15.35;;
77678;SDS011;66835;49.478;10.724;2024-03-02T07:03:34;33.70;;;16.63;;
77678;SDS011;66835;49.478;10.724;2024-03-02T07:06:00;31.95;;;16.45;;
77678;SDS011;66835;49.478;10.724;2024-03-02T07:08:25;30.53;;;16.40;;
77678;SDS011;66835;49.478;10.724;2024-03-02T07:10:52;36.88;;;18.85;;
77678;SDS011;66835;49.478;10.724;2024-03-02T07:13:18;40.55;;;19.80;;
77678;SDS011;66835;49.478;10.724;2024-03-02T07:15:43;33.77;;;18.37;;
77678;SDS011;66835;49.478;10.724;2024-03-02T07:18:28;37.08;;;19.02;;
77678;SDS011;66835;49.478;10.724;2024-03-02T07:20:54;34.10;;;17.65;;
77678;SDS011;66835;49.478;10.724;2024-03-02T07:23:20;32.33;;;16.63;;
77678;SDS011;66835;49.478;10.724;2024-03-02T07:25:49;34.90;;;17.95;;
77678;SDS011;66835;49.478;10.724;2024-03-02T07:28:16;29.90;;;14.93;;
77678;SDS011;66835;49.478;10.724;2024-03-02T07:30:41;27.50;;;15.32;;
77678;SDS011;66835;49.478;10.724;2024-03-02T07:33:07;28.23;;;13.43;;
77678;SDS011;66835;49.478;10.724;2024-03-02T07:35:32;27.48;;;15.30;;
77678;SDS011;66835;49.478;10.724;2024-03-02T07:37:58;31.58;;;14.93;;
77678;SDS011;66835;49.478;10.724;2024-03-02T07:40:24;26.05;;;13.13;;
77678;SDS011;66835;49.478;10.724;2024-03-02T07:42:49;27.27;;;12.98;;
77678;SDS011;66835;49.478;10.724;2024-03-02T07:45:16;26.45;;;12.55;;
77678;SDS011;66835;49.478;10.724;2024-03-02T07:47:42;20.98;;;11.45;;
77678;SDS011;66835;49.478;10.724;2024-03-02T07:50:07;23.35;;;11.63;;
77678;SDS011;66835;49.478;10.724;2024-03-02T07:52:33;20.02;;;11.15;;
77678;SDS011;66835;49.478;10.724;2024-03-02T07:54:58;21.38;;;11.23;;
77678;SDS011;66835;49.478;10.724;2024-03-02T07:57:24;20.83;;;10.50;;
77678;SDS011;66835;49.478;10.724;2024-03-02T07:59:49;21.75;;;11.35;;
77678;SDS011;66835;49.478;10.724;2024-03-02T08:02:16;22.67;;;11.40;;
77678;SDS011;66835;49.478;10.724;2024-03-02T08:04:41;22.63;;;11.30;;
77678;SDS011;66835;49.478;10.724;2024-03-02T08:07:07;21.35;;;11.25;;
77678;SDS011;66835;49.478;10.724;2024-03-02T08:09:34;26.40;;;11.77;;
77678;SDS011;66835;49.478;10.724;2024-03-02T08:11:59;30.70;;;16.08;;
77678;SDS011;66835;49.478;10.724;2024-03-02T08:14:25;21.87;;;11.63;;
77678;SDS011;66835;49.478;10.724;2024-03-02T08:16:51;19.73;;;10.38;;
77678;SDS011;66835;49.478;10.724;2024-03-02T08:19:17;18.75;;;10.32;;
77678;SDS011;66835;49.478;10.724;2024-03-02T08:21:43;20.00;;;10.48;;
77678;SDS011;66835;49.478;10.724;2024-03-02T08:24:08;17.65;;;9.32;;
77678;SDS011;66835;49.478;10.724;2024-03-02T08:26:34;18.27;;;9.45;;
77678;SDS011;66835;49.478;10.724;2024-03-02T08:29:00;17.23;;;8.68;;
77678;SDS011;66835;49.478;10.724;2024-03-02T08:31:26;18.75;;;9.68;;
77678;SDS011;66835;49.478;10.724;2024-03-02T08:33:52;49.95;;;23.42;;
77678;SDS011;66835;49.478;10.724;2024-03-02T08:36:19;23.17;;;11.90;;
77678;SDS011;66835;49.478;10.724;2024-03-02T08:38:45;25.85;;;13.30;;
77678;SDS011;66835;49.478;10.724;2024-03-02T08:41:11;15.13;;;8.10;;
77678;SDS011;66835;49.478;10.724;2024-03-02T08:43:38;16.15;;;7.93;;
77678;SDS011;66835;49.478;10.724;2024-03-02T08:46:03;16.42;;;8.43;;
77678;SDS011;66835;49.478;10.724;2024-03-02T08:48:28;13.73;;;8.00;;
77678;SDS011;66835;49.478;10.724;2024-03-02T08:50:54;14.15;;;7.40;;
77678;SDS011;66835;49.478;10.724;2024-03-02T08:53:21;14.93;;;7.78;;
77678;SDS011;66835;49.478;10.724;2024-03-02T08:55:46;15.88;;;8.93;;
77678;SDS011;66835;49.478;10.724;2024-03-02T08:58:12;14.15;;;7.07;;
77678;SDS011;66835;49.478;10.724;2024-03-02T09:00:37;12.45;;;6.75;;
77678;SDS011;66835;49.478;10.724;2024-03-02T09:03:03;13.40;;;6.30;;
77678;SDS011;66835;49.478;10.724;2024-03-02T09:05:29;14.00;;;6.35;;
77678;SDS011;66835;49.478;10.724;2024-03-02T09:07:54;12.00;;;7.00;;
77678;SDS011;66835;49.478;10.724;2024-03-02T09:10:21;12.57;;;6.90;;
77678;SDS011;66835;49.478;10.724;2024-03-02T09:12:47;14.88;;;6.63;;
77678;SDS011;66835;49.478;10.724;2024-03-02T09:15:12;12.25;;;6.65;;
77678;SDS011;66835;49.478;10.724;2024-03-02T09:17:38;12.30;;;6.25;;
77678;SDS011;66835;49.478;10.724;2024-03-02T09:20:03;11.52;;;6.47;;
77678;SDS011;66835;49.478;10.724;2024-03-02T09:22:29;13.02;;;6.60;;
77678;SDS011;66835;49.478;10.724;2024-03-02T09:24:55;12.40;;;7.05;;
77678;SDS011;66835;49.478;10.724;2024-03-02T09:27:22;13.52;;;7.15;;
77678;SDS011;66835;49.478;10.724;2024-03-02T09:29:47;11.32;;;7.53;;
77678;SDS011;66835;49.478;10.724;2024-03-02T09:32:13;11.23;;;5.88;;
77678;SDS011;66835;49.478;10.724;2024-03-02T09:34:39;12.10;;;6.07;;
77678;SDS011;66835;49.478;10.724;2024-03-02T09:37:04;29.23;;;14.50;;
77678;SDS011;66835;49.478;10.724;2024-03-02T09:39:29;13.63;;;7.50;;
77678;SDS011;66835;49.478;10.724;2024-03-02T09:41:55;9.95;;;5.50;;
77678;SDS011;66835;49.478;10.724;2024-03-02T09:44:22;10.23;;;6.00;;
77678;SDS011;66835;49.478;10.724;2024-03-02T09:46:48;16.75;;;7.13;;
77678;SDS011;66835;49.478;10.724;2024-03-02T09:49:13;11.60;;;5.93;;
77678;SDS011;66835;49.478;10.724;2024-03-02T09:51:39;10.32;;;5.40;;
77678;SDS011;66835;49.478;10.724;2024-03-02T09:54:06;11.52;;;5.32;;
77678;SDS011;66835;49.478;10.724;2024-03-02T09:56:32;10.27;;;5.53;;
77678;SDS011;66835;49.478;10.724;2024-03-02T09:58:57;10.63;;;6.03;;
77678;SDS011;66835;49.478;10.724;2024-03-02T10:01:24;10.48;;;5.82;;
77678;SDS011;66835;49.478;10.724;2024-03-02T10:03:50;9.63;;;5.43;;
77678;SDS011;66835;49.478;10.724;2024-03-02T10:06:18;9.50;;;4.88;;
77678;SDS011;66835;49.478;10.724;2024-03-02T10:08:44;10.60;;;5.40;;
77678;SDS011;66835;49.478;10.724;2024-03-02T10:11:09;9.10;;;5.38;;
77678;SDS011;66835;49.478;10.724;2024-03-02T10:13:35;10.70;;;5.03;;
77678;SDS011;66835;49.478;10.724;2024-03-02T10:16:02;10.57;;;5.82;;
77678;SDS011;66835;49.478;10.724;2024-03-02T10:18:38;9.82;;;5.32;;
77678;SDS011;66835;49.478;10.724;2024-03-02T10:21:12;8.25;;;4.30;;
77678;SDS011;66835;49.478;10.724;2024-03-02T10:23:39;7.13;;;4.20;;
77678;SDS011;66835;49.478;10.724;2024-03-02T10:26:05;7.97;;;4.20;;
77678;SDS011;66835;49.478;10.724;2024-03-02T10:28:45;9.00;;;4.80;;
77678;SDS011;66835;49.478;10.724;2024-03-02T10:31:11;8.48;;;4.55;;
77678;SDS011;66835;49.478;10.724;2024-03-02T10:33:38;9.82;;;5.00;;
77678;SDS011;66835;49.478;10.724;2024-03-02T10:36:05;25.02;;;7.97;;
77678;SDS011;66835;49.478;10.724;2024-03-02T10:38:30;32.13;;;16.27;;
77678;SDS011;66835;49.478;10.724;2024-03-02T10:40:55;13.85;;;7.30;;
77678;SDS011;66835;49.478;10.724;2024-03-02T10:43:24;9.30;;;5.20;;
77678;SDS011;66835;49.478;10.724;2024-03-02T10:45:50;9.70;;;4.70;;
77678;SDS011;66835;49.478;10.724;2024-03-02T10:48:16;8.63;;;4.57;;
77678;SDS011;66835;49.478;10.724;2024-03-02T10:50:43;9.45;;;4.93;;
77678;SDS011;66835;49.478;10.724;2024-03-02T10:53:08;9.63;;;5.70;;
77678;SDS011;66835;49.478;10.724;2024-03-02T10:55:33;12.52;;;5.50;;
77678;SDS011;66835;49.478;10.724;2024-03-02T10:57:59;8.25;;;4.82;;
77678;SDS011;66835;49.478;10.724;2024-03-02T11:00:28;10.38;;;5.10;;
77678;SDS011;66835;49.478;10.724;2024-03-02T11:03:03;10.43;;;5.95;;
77678;SDS011;66835;49.478;10.724;2024-03-02T11:05:36;19.50;;;11.10;;
77678;SDS011;66835;49.478;10.724;2024-03-02T11:08:06;12.00;;;5.25;;
77678;SDS011;66835;49.478;10.724;2024-03-02T11:10:34;10.38;;;5.47;;
77678;SDS011;66835;49.478;10.724;2024-03-02T11:13:02;9.70;;;5.38;;
77678;SDS011;66835;49.478;10.724;2024-03-02T11:15:29;10.00;;;5.10;;
77678;SDS011;66835;49.478;10.724;2024-03-02T11:17:55;11.43;;;5.22;;
77678;SDS011;66835;49.478;10.724;2024-03-02T11:20:22;10.20;;;5.65;;
77678;SDS011;66835;49.478;10.724;2024-03-02T11:22:47;9.23;;;5.07;;
77678;SDS011;66835;49.478;10.724;2024-03-02T11:25:24;10.10;;;5.43;;
77678;SDS011;66835;49.478;10.724;2024-03-02T11:27:59;29.38;;;14.43;;
77678;SDS011;66835;49.478;10.724;2024-03-02T11:33:15;9.77;;;5.65;;
77678;SDS011;66835;49.478;10.724;2024-03-02T11:35:51;12.27;;;5.35;;
77678;SDS011;66835;49.478;10.724;2024-03-02T11:38:17;9.38;;;5.43;;
77678;SDS011;66835;49.478;10.724;2024-03-02T11:40:44;9.82;;;6.00;;
77678;SDS011;66835;49.478;10.724;2024-03-02T11:43:09;10.80;;;5.85;;
77678;SDS011;66835;49.478;10.724;2024-03-02T11:45:36;10.38;;;5.25;;
77678;SDS011;66835;49.478;10.724;2024-03-02T11:48:05;11.27;;;6.53;;
77678;SDS011;66835;49.478;10.724;2024-03-02T11:50:33;12.10;;;6.07;;
77678;SDS011;66835;49.478;10.724;2024-03-02T11:53:00;10.93;;;5.65;;
77678;SDS011;66835;49.478;10.724;2024-03-02T11:55:26;9.23;;;4.97;;
77678;SDS011;66835;49.478;10.724;2024-03-02T11:57:53;12.75;;;6.45;;
77678;SDS011;66835;49.478;10.724;2024-03-02T12:00:19;11.10;;;6.68;;
77678;SDS011;66835;49.478;10.724;2024-03-02T12:02:45;10.32;;;4.53;;
77678;SDS011;66835;49.478;10.724;2024-03-02T12:05:14;9.23;;;4.55;;
77678;SDS011;66835;49.478;10.724;2024-03-02T12:07:39;10.07;;;5.00;;
77678;SDS011;66835;49.478;10.724;2024-03-02T12:10:05;8.68;;;4.97;;
77678;SDS011;66835;49.478;10.724;2024-03-02T12:12:31;9.25;;;5.05;;
77678;SDS011;66835;49.478;10.724;2024-03-02T12:14:57;11.05;;;5.45;;
77678;SDS011;66835;49.478;10.724;2024-03-02T12:17:25;8.15;;;4.90;;
77678;SDS011;66835;49.478;10.724;2024-03-02T12:19:50;8.98;;;5.10;;
77678;SDS011;66835;49.478;10.724;2024-03-02T12:22:16;9.95;;;5.15;;
77678;SDS011;66835;49.478;10.724;2024-03-02T12:24:41;9.20;;;5.57;;
77678;SDS011;66835;49.478;10.724;2024-03-02T12:27:10;12.27;;;6.70;;
77678;SDS011;66835;49.478;10.724;2024-03-02T12:29:36;10.15;;;6.03;;
77678;SDS011;66835;49.478;10.724;2024-03-02T12:32:03;9.20;;;5.40;;
77678;SDS011;66835;49.478;10.724;2024-03-02T12:34:29;10.63;;;5.50;;
77678;SDS011;66835;49.478;10.724;2024-03-02T12:36:54;8.40;;;5.25;;
77678;SDS011;66835;49.478;10.724;2024-03-02T12:39:20;11.73;;;5.95;;
77678;SDS011;66835;49.478;10.724;2024-03-02T12:41:46;10.52;;;5.55;;
77678;SDS011;66835;49.478;10.724;2024-03-02T12:44:11;19.17;;;10.07;;
77678;SDS011;66835;49.478;10.724;2024-03-02T12:46:37;29.15;;;13.60;;
77678;SDS011;66835;49.478;10.724;2024-03-02T12:49:08;9.80;;;5.50;;
77678;SDS011;66835;49.478;10.724;2024-03-02T12:51:35;8.25;;;4.70;;
77678;SDS011;66835;49.478;10.724;2024-03-02T12:54:01;9.20;;;5.03;;
77678;SDS011;66835;49.478;10.724;2024-03-02T12:56:28;8.43;;;5.68;;
77678;SDS011;66835;49.478;10.724;2024-03-02T12:58:54;10.57;;;5.75;;
77678;SDS011;66835;49.478;10.724;2024-03-02T13:01:19;10.45;;;5.90;;
77678;SDS011;66835;49.478;10.724;2024-03-02T13:03:45;12.18;;;8.00;;
77678;SDS011;66835;49.478;10.724;2024-03-02T13:06:12;10.73;;;6.82;;
77678;SDS011;66835;49.478;10.724;2024-03-02T13:08:37;11.05;;;7.43;;
77678;SDS011;66835;49.478;10.724;2024-03-02T13:11:03;11.93;;;7.35;;
77678;SDS011;66835;49.478;10.724;2024-03-02T13:13:32;13.32;;;8.23;;
77678;SDS011;66835;49.478;10.724;2024-03-02T13:15:57;14.05;;;9.57;;
77678;SDS011;66835;49.478;10.724;2024-03-02T13:18:23;13.50;;;8.88;;
77678;SDS011;66835;49.478;10.724;2024-03-02T13:20:48;15.57;;;9.98;;
77678;SDS011;66835;49.478;10.724;2024-03-02T13:23:15;15.32;;;9.25;;
77678;SDS011;66835;49.478;10.724;2024-03-02T13:25:40;15.98;;;10.50;;
77678;SDS011;66835;49.478;10.724;2024-03-02T13:28:06;17.67;;;10.35;;
77678;SDS011;66835;49.478;10.724;2024-03-02T13:30:31;17.30;;;9.95;;
77678;SDS011;66835;49.478;10.724;2024-03-02T13:32:56;54.63;;;31.38;;
77678;SDS011;66835;49.478;10.724;2024-03-02T13:35:22;21.88;;;13.43;;
77678;SDS011;66835;49.478;10.724;2024-03-02T13:37:47;16.73;;;10.30;;
77678;SDS011;66835;49.478;10.724;2024-03-02T13:40:14;14.68;;;9.32;;
77678;SDS011;66835;49.478;10.724;2024-03-02T13:42:42;15.63;;;10.25;;
77678;SDS011;66835;49.478;10.724;2024-03-02T13:45:08;16.42;;;11.35;;
77678;SDS011;66835;49.478;10.724;2024-03-02T13:47:33;16.52;;;10.70;;
77678;SDS011;66835;49.478;10.724;2024-03-02T13:49:59;19.38;;;11.20;;
77678;SDS011;66835;49.478;10.724;2024-03-02T13:52:24;21.88;;;11.25;;
77678;SDS011;66835;49.478;10.724;2024-03-02T13:54:51;18.92;;;11.55;;
77678;SDS011;66835;49.478;10.724;2024-03-02T13:57:18;18.30;;;12.02;;
77678;SDS011;66835;49.478;10.724;2024-03-02T13:59:45;17.00;;;10.52;;
77678;SDS011;66835;49.478;10.724;2024-03-02T14:02:10;20.33;;;12.23;;
77678;SDS011;66835;49.478;10.724;2024-03-02T14:04:36;20.27;;;11.95;;
77678;SDS011;66835;49.478;10.724;2024-03-02T14:07:02;20.63;;;12.73;;
77678;SDS011;66835;49.478;10.724;2024-03-02T14:09:28;18.13;;;10.93;;
77678;SDS011;66835;49.478;10.724;2024-03-02T14:11:53;19.08;;;10.57;;